Time;durP1;ratioP1;P1;durP2;ratioP2;P2;SDS_P1;SDS_P2;PMS_P1;PMS_P2;Temp;Humidity;BMP_temperature;BMP_pressure;BME280_temperature;BME280_humidity;BME280_pressure;Samples;Min_cycle;Max_cycle;Signal;HPM_P1;HPM_P2
2022/08/01 00:00:03;;;;;;;;;;;;;;;18.04;60.17;99536.59;4454015;32;19977;-92
2022/08/01 00:02:30;;;;;;;;;;;;;;;18.20;60.19;99538.19;4439947;32;19993;-92
2022/08/01 00:04:55;;;;;;;;;;;;;;;18.16;60.18;99534.94;4440205;32;20510;-91
2022/08/01 00:07:21;;;;;;;;;;;;;;;18.20;60.18;99531.13;4439649;32;20001;-92
2022/08/01 00:09:46;;;;;;;;;;;;;;;18.05;60.18;99532.19;4440077;32;20442;-92
2022/08/01 00:12:11;;;;;;;;;;;;;;;18.16;60.19;99534.09;4427045;32;19996;-91
2022/08/01 00:14:36;;;;;;;;;;;;;;;18.00;60.18;99540.38;4437265;32;19981;-90
2022/08/01 00:17:02;;;;;;;;;;;;;;;18.00;60.17;99534.28;4434488;32;20062;-92
2022/08/01 00:19:27;;;;;;;;;;;;;;;17.92;60.18;99532.12;4439812;32;19985;-91
2022/08/01 00:21:52;;;;;;;;;;;;;;;17.84;60.17;99526.53;4439629;32;19996;-92
2022/08/01 00:24:18;;;;;;;;;;;;;;;17.83;60.16;99526.63;4439556;32;20035;-91
2022/08/01 00:26:46;;;;;;;;;;;;;;;17.76;60.15;99526.19;4438956;32;20258;-92
2022/08/01 00:29:11;;;;;;;;;;;;;;;17.82;60.16;99525.78;4436793;32;20007;-93
2022/08/01 00:31:36;;;;;;;;;;;;;;;17.77;60.16;99522.63;4433238;32;19981;-91
2022/08/01 00:34:02;;;;;;;;;;;;;;;17.56;60.15;99518.69;4439762;32;20052;-93
2022/08/01 00:36:27;;;;;;;;;;;;;;;17.63;60.15;99517.34;4440355;32;20318;-92
2022/08/01 00:38:52;;;;;;;;;;;;;;;17.67;60.16;99517.09;4439928;32;20036;-92
2022/08/01 00:41:17;;;;;;;;;;;;;;;17.68;60.16;99515.28;4430288;32;19985;-91
2022/08/01 00:43:43;;;;;;;;;;;;;;;17.39;60.14;99511.88;4438695;32;25981;-92
2022/08/01 00:46:08;;;;;;;;;;;;;;;17.55;60.15;99522.28;4435130;32;20033;-93
2022/08/01 00:48:34;;;;;;;;;;;;;;;17.52;60.14;99509.31;4455146;32;19988;-92
2022/08/01 00:50:59;;;;;;;;;;;;;;;17.43;60.14;99516.00;4441436;32;24936;-93
2022/08/01 00:53:25;;;;;;;;;;;;;;;17.25;60.13;99517.16;4442390;32;19982;-91
2022/08/01 00:55:50;;;;;;;;;;;;;;;17.32;60.14;99513.22;4442492;32;19997;-92
2022/08/01 00:58:15;;;;;;;;;;;;;;;17.27;60.13;99510.00;4442136;32;20345;-92
2022/08/01 01:00:40;;;;;;;;;;;;;;;17.36;60.14;99515.56;4448613;32;20311;-93
2022/08/01 01:03:05;;;;;;;;;;;;;;;17.13;60.12;99524.06;4440201;32;19989;-93
2022/08/01 01:05:32;;;;;;;;;;;;;;;17.16;60.13;99521.22;4431513;32;24486;-91
2022/08/01 01:07:59;;;;;;;;;;;;;;;17.13;60.12;99517.00;4442181;32;19997;-93
2022/08/01 01:10:25;;;;;;;;;;;;;;;17.19;60.12;99515.75;4453739;32;19991;-92
2022/08/01 01:13:06;;;;;;;;;;;;;;;16.97;60.12;99526.78;4444286;32;19985;-92
2022/08/01 01:15:41;;;;;;;;;;;;;;;17.05;60.12;99528.94;4449632;32;20338;-92
2022/08/01 01:18:08;;;;;;;;;;;;;;;17.07;60.12;99519.19;4430495;32;19993;-92
2022/08/01 01:20:37;;;;;;;;;;;;;;;16.90;60.11;99536.00;4430370;32;20005;-92
2022/08/01 01:23:05;;;;;;;;;;;;;;;16.91;60.12;99535.03;4441374;32;20654;-90
2022/08/01 01:25:36;;;;;;;;;;;;;;;17.03;60.13;99528.16;4454152;32;20004;-91
2022/08/01 01:28:16;;;;;;;;;;;;;;;17.07;60.12;99524.44;4455269;32;19986;-91
2022/08/01 01:30:42;;;;;;;;;;;;;;;17.24;60.13;99526.84;4440999;32;20033;-92
2022/08/01 01:33:09;;;;;;;;;;;;;;;17.25;60.14;99523.25;4451998;32;20055;-91
2022/08/01 01:35:35;;;;;;;;;;;;;;;17.19;60.13;99523.66;4441282;32;19997;-91
2022/08/01 01:38:19;;;;;;;;;;;;;;;17.15;60.12;99527.44;4441252;32;20003;-91
2022/08/01 01:40:45;;;;;;;;;;;;;;;16.97;60.12;99521.50;4448551;32;19989;-90
2022/08/01 01:43:10;;;;;;;;;;;;;;;16.98;60.11;99519.72;4437006;32;20105;-91
2022/08/01 01:45:35;;;;;;;;;;;;;;;17.03;60.12;99515.88;4441164;32;20012;-91
2022/08/01 01:48:00;;;;;;;;;;;;;;;17.02;60.12;99514.19;4441186;32;20024;-91
2022/08/01 01:50:26;;;;;;;;;;;;;;;16.98;60.11;99514.47;4440262;32;19977;-90
2022/08/01 01:52:51;;;;;;;;;;;;;;;17.11;60.12;99513.63;4438164;32;20319;-90
2022/08/01 01:55:16;;;;;;;;;;;;;;;16.90;60.11;99512.31;4437309;32;19989;-91
2022/08/01 01:57:42;;;;;;;;;;;;;;;17.07;60.11;99506.88;4440883;32;19993;-92
2022/08/01 02:00:08;;;;;;;;;;;;;;;16.93;60.11;99508.66;4440522;32;19983;-89
2022/08/01 02:02:34;;;;;;;;;;;;;;;17.17;60.13;99515.88;4440817;32;20021;-90
2022/08/01 02:05:00;;;;;;;;;;;;;;;17.26;60.13;99513.59;4440774;32;19986;-91
2022/08/01 02:07:25;;;;;;;;;;;;;;;17.14;60.12;99508.16;4451493;32;20043;-91
2022/08/01 02:09:50;;;;;;;;;;;;;;;17.08;60.13;99505.94;4441135;32;20022;-90
2022/08/01 02:12:16;;;;;;;;;;;;;;;16.87;60.11;99505.47;4440965;32;19978;-92
2022/08/01 02:14:41;;;;;;;;;;;;;;;17.08;60.12;99498.03;4441065;32;20337;-92
2022/08/01 02:17:06;;;;;;;;;;;;;;;16.93;60.12;99498.16;4441674;32;19997;-91
2022/08/01 02:19:32;;;;;;;;;;;;;;;16.79;60.11;99496.34;4441242;32;20310;-91
2022/08/01 02:22:00;;;;;;;;;;;;;;;16.86;60.11;99488.00;4433691;32;19996;-92
2022/08/01 02:24:39;;;;;;;;;;;;;;;17.00;60.12;99492.41;4437278;32;20044;-91
2022/08/01 02:27:07;;;;;;;;;;;;;;;16.85;60.11;99488.94;4441676;32;19985;-94
2022/08/01 02:29:35;;;;;;;;;;;;;;;17.11;60.12;99489.97;4440061;32;19991;-91
2022/08/01 02:32:00;;;;;;;;;;;;;;;17.17;60.13;99481.66;4432249;32;19965;-93
2022/08/01 02:34:26;;;;;;;;;;;;;;;16.79;60.10;99489.31;4441230;32;19992;-92
2022/08/01 02:36:54;;;;;;;;;;;;;;;16.79;60.10;99497.19;4440918;32;20037;-92
2022/08/01 02:39:19;;;;;;;;;;;;;;;16.72;60.11;99495.03;4441795;32;19981;-93
2022/08/01 02:41:45;;;;;;;;;;;;;;;16.67;60.10;99499.75;4441824;32;20021;-93
2022/08/01 02:44:12;;;;;;;;;;;;;;;16.84;60.10;99495.16;4442633;32;20030;-91
2022/08/01 02:46:41;;;;;;;;;;;;;;;16.85;60.12;99496.84;4452467;32;19984;-93
2022/08/01 02:49:07;;;;;;;;;;;;;;;16.89;60.11;99497.50;4444979;32;20040;-93
2022/08/01 02:51:32;;;;;;;;;;;;;;;16.88;60.11;99494.03;4442544;32;19977;-93
2022/08/01 02:53:58;;;;;;;;;;;;;;;16.94;60.12;99492.78;4442458;32;19989;-93
2022/08/01 02:56:24;;;;;;;;;;;;;;;16.79;60.10;99486.69;4442741;32;20040;-94
2022/08/01 02:58:49;;;;;;;;;;;;;;;16.76;60.10;99481.63;4442271;32;25098;-93
2022/08/01 03:01:14;;;;;;;;;;;;;;;16.91;60.11;99477.22;4441883;32;22753;-93
2022/08/01 03:03:40;;;;;;;;;;;;;;;16.98;60.12;99481.13;4442467;32;19989;-93
2022/08/01 03:06:05;;;;;;;;;;;;;;;17.02;60.12;99479.16;4440627;32;20004;-91
2022/08/01 03:08:30;;;;;;;;;;;;;;;16.98;60.11;99475.87;4442077;32;19981;-92
2022/08/01 03:10:55;;;;;;;;;;;;;;;16.82;60.11;99476.00;4441994;32;20344;-91
2022/08/01 03:13:21;;;;;;;;;;;;;;;16.71;60.10;99470.56;4441849;32;20004;-92
2022/08/01 03:15:46;;;;;;;;;;;;;;;16.79;60.11;99470.91;4441881;32;19981;-91
2022/08/01 03:18:11;;;;;;;;;;;;;;;16.91;60.11;99473.72;4441737;32;19973;-92
2022/08/01 03:21:08;;;;;;;;;;;;;;;17.00;60.11;99473.16;4441968;32;20102;-94
2022/08/01 03:23:33;;;;;;;;;;;;;;;17.16;60.13;99473.88;4455680;32;19981;-93
2022/08/01 03:25:59;;;;;;;;;;;;;;;17.16;60.13;99471.25;4442867;32;20509;-94
2022/08/01 03:28:24;;;;;;;;;;;;;;;17.12;60.12;99473.22;4442080;32;20004;-92
2022/08/01 03:30:49;;;;;;;;;;;;;;;17.38;60.14;99468.94;4442073;32;20005;-93
2022/08/01 03:33:14;;;;;;;;;;;;;;;17.15;60.12;99472.19;4442169;32;20298;-93
2022/08/01 03:35:42;;;;;;;;;;;;;;;17.24;60.14;99462.88;4442133;32;19997;-93
2022/08/01 03:38:10;;;;;;;;;;;;;;;17.24;60.12;99465.50;4442348;32;19980;-95
2022/08/01 03:40:35;;;;;;;;;;;;;;;17.20;60.12;99464.84;4442113;32;19992;-89
2022/08/01 03:43:06;;;;;;;;;;;;;;;17.43;60.14;99458.09;4441215;32;19997;-91
2022/08/01 03:45:34;;;;;;;;;;;;;;;17.59;60.15;99461.44;4441192;32;19964;-91
2022/08/01 03:48:00;;;;;;;;;;;;;;;17.69;60.14;99462.53;4441641;32;20250;-93
2022/08/01 03:50:38;;;;;;;;;;;;;;;17.79;60.16;99462.81;4441553;32;20056;-92
2022/08/01 03:53:03;;;;;;;;;;;;;;;17.60;60.14;99464.91;4441903;32;19985;-92
2022/08/01 03:55:32;;;;;;;;;;;;;;;17.89;60.16;99465.66;4441630;32;20027;-91
2022/08/01 03:57:58;;;;;;;;;;;;;;;17.89;60.16;99468.28;4439640;32;19998;-93
2022/08/01 04:00:24;;;;;;;;;;;;;;;18.06;60.17;99471.50;4441081;32;20056;-90
2022/08/01 04:02:49;;;;;;;;;;;;;;;18.13;60.17;99477.19;4440875;32;20034;-90
2022/08/01 04:05:15;;;;;;;;;;;;;;;18.15;60.17;99479.72;4440983;32;20020;-88
2022/08/01 04:07:42;;;;;;;;;;;;;;;18.44;60.19;99481.19;4440801;32;20031;-89
2022/08/01 04:10:08;;;;;;;;;;;;;;;18.56;60.20;99485.66;4440495;32;20000;-91
2022/08/01 04:12:33;;;;;;;;;;;;;;;18.50;60.20;99487.88;4440759;32;20342;-89
2022/08/01 04:14:59;;;;;;;;;;;;;;;18.54;60.20;99490.19;4440890;32;19993;-89
2022/08/01 04:17:24;;;;;;;;;;;;;;;18.69;60.21;99491.81;4442348;32;19974;-91
2022/08/01 04:19:50;;;;;;;;;;;;;;;19.01;60.23;99488.69;4443661;32;19995;-92
2022/08/01 04:22:15;;;;;;;;;;;;;;;19.13;60.22;99484.31;4452131;32;20013;-89
2022/08/01 04:24:41;;;;;;;;;;;;;;;19.18;60.23;99487.50;4448263;32;19997;-92
2022/08/01 04:27:09;;;;;;;;;;;;;;;19.26;60.23;99490.41;4443164;32;20334;-92
2022/08/01 04:29:35;;;;;;;;;;;;;;;19.40;60.24;99486.78;4443526;32;19987;-92
2022/08/01 04:32:00;;;;;;;;;;;;;;;19.55;60.25;99485.69;4442575;32;19985;-92
2022/08/01 04:34:26;;;;;;;;;;;;;;;19.58;60.25;99478.38;4442540;32;19997;-92
2022/08/01 04:36:51;;;;;;;;;;;;;;;19.67;60.26;99486.62;4442864;32;19969;-92
2022/08/01 04:39:16;;;;;;;;;;;;;;;19.81;60.26;99481.97;4442829;32;20003;-91
2022/08/01 04:41:42;;;;;;;;;;;;;;;19.88;60.26;99475.31;4442319;32;19981;-92
2022/08/01 04:44:07;;;;;;;;;;;;;;;19.89;60.27;99476.97;4442887;32;20007;-91
2022/08/01 04:46:32;;;;;;;;;;;;;;;20.07;60.27;99481.81;4442785;32;19985;-92
2022/08/01 04:48:57;;;;;;;;;;;;;;;20.18;60.29;99484.50;4442804;32;19984;-92
2022/08/01 04:51:23;;;;;;;;;;;;;;;20.16;60.28;99482.00;4442574;32;21027;-91
2022/08/01 04:53:48;;;;;;;;;;;;;;;20.21;60.28;99481.63;4442776;32;20027;-90
2022/08/01 04:56:13;;;;;;;;;;;;;;;20.37;60.29;99482.16;4442464;32;20325;-90
2022/08/01 04:58:39;;;;;;;;;;;;;;;20.53;60.30;99487.12;4442135;32;20342;-90
2022/08/01 05:01:05;;;;;;;;;;;;;;;20.72;60.31;99473.31;4441985;32;20001;-90
2022/08/01 05:03:30;;;;;;;;;;;;;;;20.71;60.31;99483.06;4442298;32;20430;-90
2022/08/01 05:05:55;;;;;;;;;;;;;;;20.75;60.31;99481.00;4442167;32;19981;-90
2022/08/01 05:08:20;;;;;;;;;;;;;;;20.98;60.33;99482.69;4442286;32;20306;-90
2022/08/01 05:10:46;;;;;;;;;;;;;;;20.92;60.32;99484.97;4441788;32;24338;-90
2022/08/01 05:13:11;;;;;;;;;;;;;;;21.02;60.33;99481.47;4442086;32;20005;-89
2022/08/01 05:15:36;;;;;;;;;;;;;;;21.12;60.33;99479.78;4441891;32;21720;-90
2022/08/01 05:18:02;;;;;;;;;;;;;;;21.20;60.34;99473.03;4441922;32;19995;-89
2022/08/01 05:20:27;;;;;;;;;;;;;;;21.19;60.34;99472.19;4454981;32;20011;-90
2022/08/01 05:22:52;;;;;;;;;;;;;;;21.06;60.33;99474.16;4441670;32;26415;-89
2022/08/01 05:25:17;;;;;;;;;;;;;;;21.26;60.34;99472.56;4441856;32;20799;-90
2022/08/01 05:27:42;;;;;;;;;;;;;;;21.35;60.34;99471.84;4441863;32;19981;-88
2022/08/01 05:30:08;;;;;;;;;;;;;;;21.30;60.34;99468.75;4455155;32;24189;-88
2022/08/01 05:32:33;;;;;;;;;;;;;;;21.36;60.34;99470.88;4441962;32;20280;-89
2022/08/01 05:34:59;;;;;;;;;;;;;;;21.32;60.34;99472.94;4442006;32;19981;-87
2022/08/01 05:37:24;;;;;;;;;;;;;;;21.40;60.36;99469.66;4455974;32;19966;-88
2022/08/01 05:39:49;;;;;;;;;;;;;;;21.55;60.34;99468.44;4455556;32;26401;-88
2022/08/01 05:42:15;;;;;;;;;;;;;;;21.66;60.36;99470.19;4441445;32;21190;-88
2022/08/01 05:44:40;;;;;;;;;;;;;;;21.74;60.36;99460.63;4441588;32;19977;-88
2022/08/01 05:47:05;;;;;;;;;;;;;;;21.81;60.37;99468.94;4441104;32;22666;-88
2022/08/01 05:49:30;;;;;;;;;;;;;;;21.83;60.37;99463.50;4441152;32;29977;-89
2022/08/01 05:51:55;;;;;;;;;;;;;;;22.01;60.38;99464.62;4455924;32;20010;-88
2022/08/01 05:54:21;;;;;;;;;;;;;;;22.04;60.38;99467.03;4455618;32;19977;-88
2022/08/01 05:56:46;;;;;;;;;;;;;;;22.07;60.38;99469.44;4454926;32;32289;-88
2022/08/01 05:59:11;;;;;;;;;;;;;;;22.09;60.38;99471.94;4468107;32;19999;-88
2022/08/01 06:01:36;;;;;;;;;;;;;;;22.26;60.40;99466.91;4455671;32;19989;-88
2022/08/01 06:04:02;;;;;;;;;;;;;;;22.39;60.40;99468.50;4441530;32;19974;-88
2022/08/01 06:06:27;;;;;;;;;;;;;;;22.31;60.39;99472.66;4454810;32;20330;-88
2022/08/01 06:08:52;;;;;;;;;;;;;;;22.39;60.40;99474.66;4441298;32;21799;-88
2022/08/01 06:11:17;;;;;;;;;;;;;;;22.58;60.41;99474.75;4441758;32;19993;-88
2022/08/01 06:13:42;;;;;;;;;;;;;;;22.70;60.41;99474.66;4455322;32;27695;-88
2022/08/01 06:16:08;;;;;;;;;;;;;;;22.66;60.42;99480.25;4455403;32;19972;-88
2022/08/01 06:18:33;;;;;;;;;;;;;;;22.75;60.41;99489.25;4441630;32;20001;-88
2022/08/01 06:20:58;;;;;;;;;;;;;;;22.71;60.41;99485.13;4441582;32;20287;-87
2022/08/01 06:23:23;;;;;;;;;;;;;;;22.75;60.42;99481.28;4441279;32;22310;-88
2022/08/01 06:25:51;;;;;;;;;;;;;;;23.02;60.43;99485.19;4441693;32;19984;-88
2022/08/01 06:28:16;;;;;;;;;;;;;;;23.21;60.44;99477.28;4455718;32;19977;-86
2022/08/01 06:30:42;;;;;;;;;;;;;;;23.30;60.45;99486.22;4441371;32;20016;-86
2022/08/01 06:33:08;;;;;;;;;;;;;;;23.45;60.46;99479.56;4453762;32;27957;-85
2022/08/01 06:35:33;;;;;;;;;;;;;;;23.40;60.45;99487.09;4455830;32;20037;-85
2022/08/01 06:37:58;;;;;;;;;;;;;;;23.45;60.46;99476.91;4455239;32;20368;-85
2022/08/01 06:40:24;;;;;;;;;;;;;;;23.39;60.45;99482.75;4441417;32;20059;-85
2022/08/01 06:42:49;;;;;;;;;;;;;;;23.61;60.46;99487.00;4441548;32;20005;-85
2022/08/01 06:45:15;;;;;;;;;;;;;;;23.65;60.46;99489.25;4454259;32;20003;-85
2022/08/01 06:47:40;;;;;;;;;;;;;;;23.81;60.48;99476.25;4454366;32;19985;-85
2022/08/01 06:50:06;;;;;;;;;;;;;;;23.99;60.49;99476.41;4441511;32;20332;-85
2022/08/01 06:52:31;;;;;;;;;;;;;;;24.16;60.49;99474.84;4441587;32;19973;-85
2022/08/01 06:54:56;;;;;;;;;;;;;;;24.33;60.50;99479.44;4454473;32;19984;-85
2022/08/01 06:57:22;;;;;;;;;;;;;;;24.57;60.51;99478.13;4440879;32;20336;-85
2022/08/01 06:59:47;;;;;;;;;;;;;;;24.71;60.52;99475.00;4455682;32;20334;-85
2022/08/01 07:02:12;;;;;;;;;;;;;;;24.93;60.53;99474.66;4454822;32;25411;-84
2022/08/01 07:04:37;;;;;;;;;;;;;;;25.12;60.54;99472.91;4440894;32;23697;-85
2022/08/01 07:07:03;;;;;;;;;;;;;;;25.19;60.54;99472.16;4455494;32;19995;-85
2022/08/01 07:09:28;;;;;;;;;;;;;;;25.42;60.56;99471.75;4455674;32;20348;-85
2022/08/01 07:11:53;;;;;;;;;;;;;;;25.45;60.55;99460.78;4441286;32;19973;-84
2022/08/01 07:14:19;;;;;;;;;;;;;;;25.47;60.57;99467.63;4455487;32;20375;-85
2022/08/01 07:16:44;;;;;;;;;;;;;;;25.66;60.57;99464.81;4441137;32;19997;-84
2022/08/01 07:19:09;;;;;;;;;;;;;;;25.87;60.58;99458.38;4441315;32;19996;-84
2022/08/01 07:21:35;;;;;;;;;;;;;;;25.91;60.58;99468.56;4454543;32;29843;-85
2022/08/01 07:24:00;;;;;;;;;;;;;;;26.13;60.60;99464.59;4455259;32;19965;-84
2022/08/01 07:26:26;;;;;;;;;;;;;;;26.06;60.59;99462.72;4441489;32;19981;-84
2022/08/01 07:28:51;;;;;;;;;;;;;;;26.34;60.61;99463.41;4441346;32;20008;-84
2022/08/01 07:31:16;;;;;;;;;;;;;;;26.70;60.62;99466.81;4440463;32;28734;-84
2022/08/01 07:33:42;;;;;;;;;;;;;;;26.97;60.64;99465.75;4445122;32;19981;-85
2022/08/01 07:36:07;;;;;;;;;;;;;;;27.10;60.64;99464.34;4461240;32;24536;-84
2022/08/01 07:38:32;;;;;;;;;;;;;;;27.39;60.65;99471.12;4454582;32;26737;-84
2022/08/01 07:40:57;;;;;;;;;;;;;;;27.79;60.68;99465.88;4453094;32;30104;-85
2022/08/01 07:43:23;;;;;;;;;;;;;;;27.82;60.67;99465.53;4453913;32;20005;-84
2022/08/01 07:45:48;;;;;;;;;;;;;;;27.88;60.68;99471.22;4454984;32;20017;-84
2022/08/01 07:48:13;;;;;;;;;;;;;;;27.75;60.68;99464.53;4440751;32;20258;-84
2022/08/01 07:50:38;;;;;;;;;;;;;;;27.95;60.69;99469.56;4454952;32;19985;-83
2022/08/01 07:53:04;;;;;;;;;;;;;;;27.74;60.67;99475.41;4453510;32;31263;-84
2022/08/01 07:55:29;;;;;;;;;;;;;;;27.78;60.68;99487.44;4440862;32;20037;-84
2022/08/01 07:57:54;;;;;;;;;;;;;;;28.00;60.69;99477.94;4440908;32;20398;-84
2022/08/01 08:00:19;;;;;;;;;;;;;;;28.04;60.69;99474.75;4440208;32;26900;-84
2022/08/01 08:02:45;;;;;;;;;;;;;;;27.96;60.69;99476.59;4440079;32;26425;-83
2022/08/01 08:05:10;;;;;;;;;;;;;;;28.02;60.70;99478.59;4440182;32;26064;-84
2022/08/01 08:07:35;;;;;;;;;;;;;;;27.92;60.69;99486.78;4440764;32;20024;-84
2022/08/01 08:10:01;;;;;;;;;;;;;;;27.92;60.69;99478.78;4440638;32;19995;-84
2022/08/01 08:12:26;;;;;;;;;;;;;;;27.95;60.69;99485.63;4440768;32;20302;-83
2022/08/01 08:14:51;;;;;;;;;;;;;;;28.10;60.70;99483.94;4454057;32;29911;-84
2022/08/01 08:17:16;;;;;;;;;;;;;;;28.01;60.69;99474.25;4440582;32;19999;-84
2022/08/01 08:19:42;;;;;;;;;;;;;;;27.85;60.69;99488.44;4454233;32;26778;-84
2022/08/01 08:22:07;;;;;;;;;;;;;;;27.79;60.68;99492.63;4454514;32;20019;-84
2022/08/01 08:24:32;;;;;;;;;;;;;;;27.79;60.69;99489.94;4454611;32;19992;-84
2022/08/01 08:26:58;;;;;;;;;;;;;;;27.93;60.69;99479.59;4454556;32;19981;-84
2022/08/01 08:29:24;;;;;;;;;;;;;;;27.77;60.68;99496.47;4440430;32;20364;-84
2022/08/01 08:31:50;;;;;;;;;;;;;;;27.76;60.69;99494.78;4453130;32;20343;-84
2022/08/01 08:34:15;;;;;;;;;;;;;;;27.83;60.69;99496.63;4440446;32;20008;-83
2022/08/01 08:36:41;;;;;;;;;;;;;;;27.88;60.69;99493.44;4453134;32;20302;-83
2022/08/01 08:39:06;;;;;;;;;;;;;;;27.51;60.67;99499.22;4453079;32;19962;-84
2022/08/01 08:41:31;;;;;;;;;;;;;;;27.63;60.68;99505.97;4454362;32;19961;-83
2022/08/01 08:43:58;;;;;;;;;;;;;;;27.55;60.67;99500.56;4454361;32;20254;-83
2022/08/01 08:46:24;;;;;;;;;;;;;;;27.53;60.68;99505.25;4454186;32;19993;-84
2022/08/01 08:48:50;;;;;;;;;;;;;;;27.54;60.68;99504.25;4440034;32;20035;-83
2022/08/01 08:51:16;;;;;;;;;;;;;;;27.65;60.68;99508.47;4440323;32;20000;-83
2022/08/01 08:53:44;;;;;;;;;;;;;;;27.41;60.67;99514.56;4439990;32;19989;-84
2022/08/01 08:56:11;;;;;;;;;;;;;;;27.45;60.67;99516.78;4440428;32;20674;-83
2022/08/01 08:58:38;;;;;;;;;;;;;;;27.72;60.69;99504.16;4439931;32;20048;-83
2022/08/01 09:01:08;;;;;;;;;;;;;;;28.10;60.70;99506.19;4440141;32;19978;-84
2022/08/01 09:03:33;;;;;;;;;;;;;;;27.82;60.69;99510.19;4455385;32;19993;-83
2022/08/01 09:05:58;;;;;;;;;;;;;;;27.83;60.69;99509.16;4456308;32;20020;-83
2022/08/01 09:08:23;;;;;;;;;;;;;;;27.99;60.70;99505.69;4441495;32;28779;-83
2022/08/01 09:10:49;;;;;;;;;;;;;;;28.15;60.71;99505.66;4462288;32;19982;-83
2022/08/01 09:13:14;;;;;;;;;;;;;;;28.26;60.71;99515.25;4459223;32;29683;-83
2022/08/01 09:15:39;;;;;;;;;;;;;;;28.36;60.71;99503.34;4442117;32;20021;-83
2022/08/01 09:18:05;;;;;;;;;;;;;;;28.32;60.72;99502.03;4456146;32;19981;-83
2022/08/01 09:20:30;;;;;;;;;;;;;;;28.61;60.74;99508.66;4456174;32;19985;-83
2022/08/01 09:22:55;;;;;;;;;;;;;;;28.92;60.75;99504.28;4442054;32;20060;-83
2022/08/01 09:25:21;;;;;;;;;;;;;;;28.84;60.75;99508.78;4442186;32;20009;-83
2022/08/01 09:27:46;;;;;;;;;;;;;;;28.83;60.73;99505.25;4456337;32;20035;-84
2022/08/01 09:30:15;;;;;;;;;;;;;;;29.11;60.76;99502.22;4455580;32;28746;-83
2022/08/01 09:32:56;;;;;;;;;;;;;;;29.17;60.76;99506.88;4442279;32;20003;-83
2022/08/01 09:35:25;;;;;;;;;;;;;;;29.18;60.77;99505.84;4442279;32;19997;-83
2022/08/01 09:37:51;;;;;;;;;;;;;;;29.16;60.76;99495.31;4442136;32;20000;-83
2022/08/01 09:40:16;;;;;;;;;;;;;;;29.13;60.76;99494.81;4455524;32;33691;-83
2022/08/01 09:42:41;;;;;;;;;;;;;;;29.20;60.76;99496.63;4440972;32;32186;-83
2022/08/01 09:45:06;;;;;;;;;;;;;;;29.41;60.78;99496.03;4441555;32;20002;-83
2022/08/01 09:47:38;;;;;;;;;;;;;;;29.38;60.77;99488.34;4441632;32;19973;-83
2022/08/01 09:50:03;;;;;;;;;;;;;;;29.47;60.77;99497.19;4441731;32;20004;-84
2022/08/01 09:52:28;;;;;;;;;;;;;;;29.66;60.78;99494.06;4454688;32;20293;-84
2022/08/01 09:55:03;;;;;;;;;;;;;;;29.69;60.78;99492.88;4455257;32;30975;-84
2022/08/01 09:57:29;;;;;;;;;;;;;;;29.79;60.78;99490.78;4455903;32;20004;-84
2022/08/01 09:59:55;;;;;;;;;;;;;;;30.17;60.81;99489.00;4441944;32;19989;-83
2022/08/01 10:02:30;;;;;;;;;;;;;;;30.24;60.81;99487.25;4441764;32;20011;-83
2022/08/01 10:04:55;;;;;;;;;;;;;;;30.41;60.82;99482.56;4455981;32;20033;-83
2022/08/01 10:07:21;;;;;;;;;;;;;;;30.72;60.84;99491.31;4455228;32;24021;-83
2022/08/01 10:09:47;;;;;;;;;;;;;;;30.74;60.83;99486.59;4454553;32;19985;-83
2022/08/01 10:12:13;;;;;;;;;;;;;;;31.02;60.85;99483.28;4441580;32;19981;-84
2022/08/01 10:14:39;;;;;;;;;;;;;;;31.10;60.86;99488.53;4428302;32;20060;-83
2022/08/01 10:17:05;;;;;;;;;;;;;;;30.82;60.86;99483.00;4441719;32;20298;-83
2022/08/01 10:19:32;;;;;;;;;;;;;;;30.84;60.85;99495.22;4441597;32;19978;-83
2022/08/01 10:21:58;;;;;;;;;;;;;;;30.82;60.83;99494.59;4441640;32;20021;-84
2022/08/01 10:24:24;;;;;;;;;;;;;;;31.07;60.86;99489.75;4441597;32;20061;-84
2022/08/01 10:26:51;;;;;;;;;;;;;;;31.29;60.86;99485.31;4441465;32;20356;-83
2022/08/01 10:29:18;;;;;;;;;;;;;;;31.51;60.88;99483.50;4441483;32;20000;-83
2022/08/01 10:31:43;;;;;;;;;;;;;;;31.62;60.88;99476.75;4441820;32;20046;-84
2022/08/01 10:34:09;;;;;;;;;;;;;;;31.67;60.89;99482.37;4455774;32;20318;-84
2022/08/01 10:36:38;;;;;;;;;;;;;;;31.53;60.88;99475.22;4441503;32;19984;-84
2022/08/01 10:39:03;;;;;;;;;;;;;;;31.34;60.87;99472.12;4455569;32;20048;-84
2022/08/01 10:41:29;;;;;;;;;;;;;;;31.44;60.88;99474.50;4440828;32;28361;-84
2022/08/01 10:43:54;;;;;;;;;;;;;;;31.41;60.88;99466.81;4455647;32;19989;-84
2022/08/01 10:46:19;;;;;;;;;;;;;;;31.45;60.87;99468.91;4455457;32;20458;-84
2022/08/01 10:48:48;;;;;;;;;;;;;;;31.31;60.88;99468.97;4444191;32;24112;-83
2022/08/01 10:51:15;;;;;;;;;;;;;;;31.30;60.88;99468.16;4441401;32;19989;-83
2022/08/01 10:53:45;;;;;;;;;;;;;;;31.33;60.87;99464.25;4441374;32;20448;-83
2022/08/01 10:56:10;;;;;;;;;;;;;;;31.45;60.87;99468.91;4441387;32;19973;-84
2022/08/01 10:58:37;;;;;;;;;;;;;;;31.28;60.87;99461.28;4440743;32;29701;-84
2022/08/01 11:01:14;;;;;;;;;;;;;;;31.24;60.87;99458.16;4455392;32;19974;-83
2022/08/01 11:03:40;;;;;;;;;;;;;;;31.25;60.87;99462.50;4455486;32;20033;-83
2022/08/01 11:06:06;;;;;;;;;;;;;;;31.27;60.87;99456.94;4441330;32;19989;-84
2022/08/01 11:08:31;;;;;;;;;;;;;;;31.22;60.86;99451.25;4441318;32;20236;-83
2022/08/01 11:11:03;;;;;;;;;;;;;;;31.06;60.85;99455.00;4440619;32;30994;-83
2022/08/01 11:13:47;;;;;;;;;;;;;;;31.10;60.86;99457.12;4441424;32;20011;-83
2022/08/01 11:16:24;;;;;;;;;;;;;;;31.27;60.86;99451.56;4455574;32;20016;-83
2022/08/01 11:18:49;;;;;;;;;;;;;;;31.52;60.88;99438.59;4454350;32;19989;-83
2022/08/01 11:21:15;;;;;;;;;;;;;;;31.54;60.88;99447.28;4455110;32;21034;-83
2022/08/01 11:23:46;;;;;;;;;;;;;;;31.57;60.89;99438.84;4441632;32;20025;-83
2022/08/01 11:26:12;;;;;;;;;;;;;;;31.93;60.89;99449.53;4440097;32;20423;-83
2022/08/01 11:28:37;;;;;;;;;;;;;;;31.68;60.89;99441.00;4454116;32;19985;-83
2022/08/01 11:31:08;;;;;;;;;;;;;;;31.29;60.87;99444.13;4455406;32;19977;-83
2022/08/01 11:33:39;;;;;;;;;;;;;;;31.41;60.88;99442.59;4455281;32;20334;-83
2022/08/01 11:36:10;;;;;;;;;;;;;;;31.81;60.90;99437.66;4455138;32;19984;-83
2022/08/01 11:38:36;;;;;;;;;;;;;;;31.77;60.89;99437.22;4455311;32;19995;-83
2022/08/01 11:41:20;;;;;;;;;;;;;;;31.67;60.89;99440.16;4441003;32;20029;-83
2022/08/01 11:44:07;;;;;;;;;;;;;;;31.53;60.88;99435.69;4453940;32;20003;-83
2022/08/01 11:46:51;;;;;;;;;;;;;;;31.50;60.88;99429.87;4454928;32;20025;-83
2022/08/01 11:49:23;;;;;;;;;;;;;;;31.31;60.88;99429.47;4453907;32;19997;-83
2022/08/01 11:51:48;;;;;;;;;;;;;;;31.30;60.88;99432.34;4454959;32;19965;-83
2022/08/01 11:54:13;;;;;;;;;;;;;;;31.18;60.87;99426.62;4440125;32;33064;-83
2022/08/01 11:56:38;;;;;;;;;;;;;;;31.41;60.88;99440.72;4440817;32;20032;-83
2022/08/01 11:59:03;;;;;;;;;;;;;;;31.35;60.87;99438.81;4439899;32;35643;-83
2022/08/01 12:01:29;;;;;;;;;;;;;;;31.41;60.88;99435.34;4454997;32;20038;-83
2022/08/01 12:03:55;;;;;;;;;;;;;;;31.32;60.87;99444.56;4440171;32;26320;-83
2022/08/01 12:06:27;;;;;;;;;;;;;;;31.04;60.86;99444.44;4440668;32;19970;-83
2022/08/01 12:08:52;;;;;;;;;;;;;;;31.09;60.86;99433.09;4454950;32;19977;-83
2022/08/01 12:11:18;;;;;;;;;;;;;;;31.10;60.86;99454.44;4440149;32;25089;-83
2022/08/01 12:13:44;;;;;;;;;;;;;;;30.96;60.85;99443.69;4453963;32;32579;-83
2022/08/01 12:16:10;;;;;;;;;;;;;;;30.98;60.85;99447.84;4440336;32;20037;-83
2022/08/01 12:18:39;;;;;;;;;;;;;;;30.80;60.85;99453.63;4440626;32;20025;-83
2022/08/01 12:21:04;;;;;;;;;;;;;;;30.75;60.85;99450.66;4440463;32;19980;-84
2022/08/01 12:23:29;;;;;;;;;;;;;;;30.85;60.86;99456.59;4454677;32;20329;-83
2022/08/01 12:25:55;;;;;;;;;;;;;;;30.60;60.85;99443.59;4458015;32;34555;-84
2022/08/01 12:28:20;;;;;;;;;;;;;;;30.54;60.84;99440.62;4440105;32;32614;-83
2022/08/01 12:30:46;;;;;;;;;;;;;;;30.51;60.84;99445.53;4440495;32;20326;-84
2022/08/01 12:33:16;;;;;;;;;;;;;;;30.42;60.84;99439.41;4440366;32;20027;-84
2022/08/01 12:35:41;;;;;;;;;;;;;;;30.58;60.83;99437.56;4440166;32;20306;-84
2022/08/01 12:38:13;;;;;;;;;;;;;;;30.78;60.85;99444.09;4455116;32;19995;-84
2022/08/01 12:40:40;;;;;;;;;;;;;;;31.04;60.86;99432.84;4442257;32;19995;-83
2022/08/01 12:43:05;;;;;;;;;;;;;;;31.30;60.88;99435.03;4456572;32;20350;-83